Ana Sayfa
METAR-TAF:

METAR-TAF

Havaalanları :

Machala, Ekvador

Enlem: 03-26-07S, Boylam: 079-58-40W, yükseklik: 52 m

Güncel hava durumu gözlemi

Rapor saat 02:00 UTC de 2 saat ve 28 dakika önce yapıldı.
Rüzgar güneybatıdan 3 kt
Sıcaklık 28°C
Nem 70%
Basınç 1008 hPa
Görüş mesafesi 10 km veya daha fazla
7000 ft yükseklikte parçalı bulutlu

METAR: SERO 190200Z 22003KT 9999 SCT070 28/22 Q1008

Saat: 23:28 (04:28 UTC)


TAF: eksik

4.000'den fazla havaalanı için hava durumu gözlemleri ve tahminleri (METAR ve TAF raporları).

Kullanılabilir istasyonlar harita üzerinde sarı ve kırmızı noktalarla gösterilir.

İstasyonun adını görmek için fareyi noktanın üzerinde gezdirin.

Sonrasında hava gözlem ve tahminlerini görmek için tıklayın.

Haritayı değiştirmek için: yaklaştırmak için siyah artı işaretli yeşil düğmeye ve uzaklaştırmak için de eksi işaretli düğmeye hızla tıklayın; bitişik haritalar için yeşil okları kullanın.


METAR-TAF: